createdAt,value
2023-04-19T00:00:52.109Z,82.36
2023-04-19T00:03:20.141Z,82.70
2023-04-19T00:05:48.330Z,82.91
2023-04-19T00:08:19.258Z,83.42
2023-04-19T00:10:50.232Z,84.79
2023-04-19T00:13:17.970Z,84.92
2023-04-19T00:15:47.070Z,85.67
2023-04-19T00:18:14.940Z,86.98
2023-04-19T00:20:43.116Z,86.26
2023-04-19T00:23:11.366Z,86.04
2023-04-19T00:25:47.119Z,85.35
2023-04-19T00:28:17.856Z,85.43
2023-04-19T00:30:45.724Z,85.13
2023-04-19T00:33:13.617Z,84.44
2023-04-19T00:35:44.565Z,84.60
2023-04-19T00:38:13.861Z,85.01
2023-04-19T00:40:46.706Z,84.90
2023-04-19T00:43:21.289Z,84.62
2023-04-19T00:45:51.474Z,84.82
2023-04-19T00:48:19.651Z,84.67
2023-04-19T00:50:50.644Z,84.56
2023-04-19T00:53:20.900Z,84.33
2023-04-19T00:56:03.905Z,85.50
2023-04-19T00:58:42.970Z,85.61
2023-04-19T01:01:10.844Z,85.18
2023-04-19T01:03:38.894Z,85.57
2023-04-19T01:06:20.959Z,85.90
2023-04-19T01:08:49.629Z,87.15
2023-04-19T01:11:18.642Z,86.85
2023-04-19T01:16:46.466Z,86.03
2023-04-19T01:19:16.794Z,86.70
2023-04-19T01:21:44.519Z,86.80
2023-04-19T01:24:14.988Z,86.65
2023-04-19T01:26:43.195Z,86.34
2023-04-19T01:29:10.923Z,86.05
2023-04-19T01:31:38.621Z,87.61
2023-04-19T01:34:06.331Z,86.43
2023-04-19T01:36:33.887Z,86.63
2023-04-19T01:39:01.544Z,87.29
2023-04-19T01:41:34.315Z,87.54
2023-04-19T01:44:01.942Z,88.27
2023-04-19T01:46:29.648Z,89.28
2023-04-19T01:48:58.254Z,88.84
2023-04-19T01:51:25.883Z,89.20
2023-04-19T01:53:54.540Z,89.07
2023-04-19T01:56:23.120Z,88.87
2023-04-19T01:58:52.530Z,88.95
2023-04-19T02:01:20.281Z,90.30
2023-04-19T02:03:48.738Z,89.43
2023-04-19T02:06:16.849Z,89.93
2023-04-19T02:08:44.487Z,89.37
2023-04-19T02:11:14.946Z,88.91
2023-04-19T02:13:43.542Z,89.14
2023-04-19T02:16:21.828Z,89.86
2023-04-19T02:18:52.352Z,90.93
2023-04-19T02:21:20.124Z,91.72
2023-04-19T02:23:48.010Z,92.35
2023-04-19T02:26:23.126Z,92.60
2023-04-19T02:28:53.904Z,93.00
2023-04-19T02:31:23.575Z,92.40
2023-04-19T02:33:51.493Z,91.30
2023-04-19T02:36:19.269Z,91.67
2023-04-19T02:38:47.412Z,91.99
2023-04-19T02:41:15.364Z,92.47
2023-04-19T02:43:43.054Z,93.23
2023-04-19T02:46:11.405Z,92.59
2023-04-19T02:48:40.338Z,93.33
2023-04-19T02:51:09.273Z,93.34
2023-04-19T02:53:36.820Z,94.15
2023-04-19T02:56:05.186Z,94.72
2023-04-19T02:58:32.728Z,94.76
2023-04-19T03:01:02.495Z,93.88
2023-04-19T03:03:30.251Z,94.33
2023-04-19T03:05:59.378Z,95.26
2023-04-19T03:08:28.072Z,97.27
2023-04-19T03:10:58.301Z,97.66
2023-04-19T03:13:25.960Z,97.09
2023-04-19T03:15:53.599Z,96.93
2023-04-19T03:18:22.686Z,97.42
2023-04-19T03:20:52.671Z,97.46
2023-04-19T03:23:23.099Z,98.09
2023-04-19T03:25:51.089Z,97.41
2023-04-19T03:28:18.996Z,97.53
2023-04-19T03:30:47.202Z,98.79
2023-04-19T03:33:14.819Z,99.70
2023-04-19T03:35:42.445Z,99.02
2023-04-19T03:38:10.529Z,98.62
2023-04-19T03:40:42.014Z,98.55
2023-04-19T03:43:14.570Z,99.01
2023-04-19T03:45:43.752Z,99.25
2023-04-19T03:48:12.922Z,98.99
2023-04-19T03:50:40.556Z,99.10
2023-04-19T03:53:08.345Z,99.40
2023-04-19T03:55:36.270Z,99.96
2023-04-19T03:58:05.449Z,100.00
2023-04-19T04:00:33.093Z,99.69
2023-04-19T04:03:01.111Z,99.32
2023-04-19T04:05:29.293Z,99.60
2023-04-19T04:07:58.207Z,99.04
2023-04-19T04:10:25.788Z,98.99
2023-04-19T04:13:00.598Z,99.27
2023-04-19T04:15:29.895Z,100.00
2023-04-19T04:17:57.784Z,100.00
2023-04-19T04:20:25.695Z,100.00
2023-04-19T04:22:53.575Z,100.00
2023-04-19T04:25:23.028Z,100.00
2023-04-19T04:27:51.791Z,100.00
2023-04-19T04:30:19.976Z,100.00
2023-04-19T04:32:51.318Z,100.00
2023-04-19T04:35:19.128Z,100.00
2023-04-19T04:37:46.721Z,100.00
2023-04-19T04:40:14.455Z,100.00
2023-04-19T04:42:42.800Z,100.00
2023-04-19T04:45:13.967Z,100.00
2023-04-19T04:47:41.691Z,100.00
2023-04-19T04:50:19.453Z,100.00
2023-04-19T04:52:47.238Z,100.00
2023-04-19T04:55:15.280Z,100.00
2023-04-19T04:57:42.981Z,100.00
2023-04-19T05:00:12.538Z,100.00
2023-04-19T05:02:40.675Z,100.00
2023-04-19T05:05:11.182Z,100.00
2023-04-19T05:07:41.095Z,100.00
2023-04-19T05:10:09.840Z,100.00
2023-04-19T05:12:40.453Z,100.00
2023-04-19T05:15:09.204Z,99.34
2023-04-19T05:17:36.951Z,99.70
2023-04-19T05:20:05.802Z,99.08
2023-04-19T05:22:33.652Z,98.80
2023-04-19T05:25:02.760Z,98.26
2023-04-19T05:27:30.480Z,98.06
2023-04-19T05:29:58.172Z,96.59
2023-04-19T05:32:26.193Z,95.46
2023-04-19T05:34:54.116Z,94.83
2023-04-19T05:37:21.758Z,94.39
2023-04-19T05:39:50.143Z,94.52
2023-04-19T05:42:19.295Z,94.62
2023-04-19T05:44:46.988Z,93.61
2023-04-19T05:47:17.571Z,94.39
2023-04-19T05:49:45.198Z,93.15
2023-04-19T05:52:12.894Z,91.24
2023-04-19T05:54:40.550Z,90.63
2023-04-19T05:57:10.552Z,88.39
2023-04-19T05:59:41.033Z,87.51
2023-04-19T06:02:12.251Z,86.96
2023-04-19T06:04:40.149Z,85.98
2023-04-19T06:07:17.482Z,85.12
2023-04-19T06:09:54.824Z,84.18
2023-04-19T06:12:22.451Z,85.48
2023-04-19T06:14:51.360Z,85.17
2023-04-19T06:17:23.450Z,84.83
2023-04-19T06:19:51.637Z,85.01
2023-04-19T06:22:19.380Z,84.79
2023-04-19T06:24:47.517Z,85.02
2023-04-19T06:27:17.517Z,85.18
2023-04-19T06:29:53.264Z,85.11
2023-04-19T06:32:22.876Z,85.19
2023-04-19T06:34:50.733Z,84.09
2023-04-19T06:37:19.357Z,83.20
2023-04-19T06:39:47.272Z,82.55
2023-04-19T06:42:14.885Z,82.72
2023-04-19T06:44:43.844Z,81.69
2023-04-19T06:47:11.707Z,81.60
2023-04-19T06:49:41.036Z,81.28
2023-04-19T06:52:09.201Z,80.64
2023-04-19T06:54:38.114Z,79.94
2023-04-19T06:57:06.004Z,79.29
2023-04-19T06:59:33.965Z,79.95
2023-04-19T07:02:01.659Z,78.87
2023-04-19T07:04:29.464Z,78.68
2023-04-19T07:07:09.889Z,78.90
2023-04-19T07:09:44.547Z,79.75
2023-04-19T07:12:12.520Z,79.24
2023-04-19T07:14:40.176Z,77.96
2023-04-19T07:17:07.913Z,77.68
2023-04-19T07:19:40.987Z,76.60
2023-04-19T07:22:14.866Z,76.68
2023-04-19T07:24:44.513Z,75.49
2023-04-19T07:27:14.502Z,75.22
2023-04-19T07:29:42.257Z,74.22
2023-04-19T07:32:10.287Z,73.08
2023-04-19T07:34:39.031Z,72.83
2023-04-19T07:37:06.670Z,71.97
2023-04-19T07:39:35.740Z,71.90
2023-04-19T07:42:03.316Z,72.26
2023-04-19T07:44:31.010Z,71.20
2023-04-19T07:46:58.764Z,69.91
2023-04-19T07:49:26.457Z,68.36
2023-04-19T07:51:54.186Z,67.76
2023-04-19T07:54:22.055Z,67.29
2023-04-19T07:56:52.737Z,65.68
2023-04-19T07:59:20.458Z,65.14
2023-04-19T08:01:48.677Z,63.79
2023-04-19T08:04:18.244Z,61.72
2023-04-19T08:06:46.899Z,61.94
2023-04-19T08:09:15.129Z,60.71
2023-04-19T08:11:43.200Z,59.27
2023-04-19T08:14:22.161Z,57.48
2023-04-19T08:19:32.276Z,56.70
2023-04-19T08:22:01.341Z,55.04
2023-04-19T08:24:29.250Z,55.01
2023-04-19T08:27:00.170Z,54.87
2023-04-19T08:29:29.597Z,54.21
2023-04-19T08:31:57.466Z,54.65
2023-04-19T08:34:25.840Z,55.79
2023-04-19T08:37:03.371Z,53.80
2023-04-19T08:39:34.028Z,54.95
2023-04-19T08:42:13.219Z,53.50
2023-04-19T08:45:22.593Z,54.44
2023-04-19T08:50:28.372Z,55.60
2023-04-19T08:53:09.084Z,55.30
2023-04-19T08:58:30.684Z,52.88
2023-04-19T09:01:04.729Z,54.27
2023-04-19T09:03:40.821Z,53.25
2023-04-19T09:06:12.675Z,54.44
2023-04-19T09:08:41.232Z,54.05
2023-04-19T09:11:09.655Z,54.05
2023-04-19T09:13:40.424Z,55.71
2023-04-19T09:16:33.732Z,54.88
2023-04-19T09:19:15.538Z,54.98
2023-04-19T09:21:53.028Z,56.15
2023-04-19T09:27:16.080Z,54.04
2023-04-19T09:29:54.673Z,53.04
2023-04-19T09:32:22.661Z,50.84
2023-04-19T09:34:57.022Z,50.88
2023-04-19T09:37:38.988Z,49.52
2023-04-19T09:40:34.032Z,50.09
2023-04-19T09:43:17.878Z,50.18
2023-04-19T09:45:51.616Z,50.01
2023-04-19T09:48:19.469Z,48.95
2023-04-19T09:51:00.818Z,49.04
2023-04-19T09:53:34.628Z,50.06
2023-04-19T09:56:04.151Z,50.59
2023-04-19T09:58:51.363Z,49.47
2023-04-19T10:01:26.680Z,49.23
2023-04-19T10:03:55.875Z,49.71
2023-04-19T10:09:15.388Z,49.97
2023-04-19T10:11:51.261Z,49.02
2023-04-19T10:14:24.553Z,49.91
2023-04-19T10:16:52.942Z,49.85
2023-04-19T10:19:23.146Z,50.03
2023-04-19T10:21:55.288Z,50.28
2023-04-19T10:24:24.477Z,49.31
2023-04-19T10:27:13.847Z,50.29
2023-04-19T10:30:01.866Z,49.29
2023-04-19T10:32:38.963Z,48.30
2023-04-19T10:35:12.878Z,48.59
2023-04-19T10:38:18.353Z,49.00
2023-04-19T10:40:59.908Z,49.29
2023-04-19T10:43:29.536Z,49.24
2023-04-19T10:46:01.988Z,49.65
2023-04-19T10:48:35.136Z,46.80
2023-04-19T10:51:03.946Z,45.88
2023-04-19T10:53:53.155Z,45.60
2023-04-19T10:56:43.684Z,44.17
2023-04-19T10:59:24.631Z,44.08
2023-04-19T11:01:55.050Z,43.49
2023-04-19T11:04:28.292Z,43.52
2023-04-19T11:07:07.347Z,42.49
2023-04-19T11:09:39.071Z,42.76
2023-04-19T11:12:08.819Z,43.45
2023-04-19T11:14:41.545Z,41.29
2023-04-19T11:17:17.002Z,39.30
2023-04-19T11:19:48.329Z,39.39
2023-04-19T11:22:18.785Z,39.95
2023-04-19T11:24:48.183Z,39.60
2023-04-19T11:27:16.409Z,40.47
2023-04-19T11:29:44.248Z,39.75
2023-04-19T11:32:12.252Z,39.43
2023-04-19T11:34:41.449Z,39.46
2023-04-19T11:37:10.879Z,37.09
2023-04-19T11:39:50.267Z,38.22
2023-04-19T11:42:21.803Z,38.35
2023-04-19T11:44:51.455Z,39.24
2023-04-19T11:47:19.884Z,38.50
2023-04-19T11:49:47.600Z,38.68
2023-04-19T11:52:21.994Z,38.00
2023-04-19T11:54:51.517Z,38.92
2023-04-19T11:57:28.867Z,38.44
2023-04-19T12:00:11.637Z,37.13
2023-04-19T12:02:41.722Z,37.95
2023-04-19T12:05:12.415Z,38.59
2023-04-19T12:08:01.499Z,37.84
2023-04-19T12:10:33.849Z,36.40
2023-04-19T12:13:18.175Z,36.78
2023-04-19T12:15:48.979Z,36.27
2023-04-19T12:18:16.785Z,35.46
2023-04-19T12:20:46.787Z,36.50
2023-04-19T12:23:15.764Z,35.34
2023-04-19T12:25:48.157Z,34.27
2023-04-19T12:28:16.539Z,33.90
2023-04-19T12:30:44.365Z,34.12
2023-04-19T12:33:12.542Z,34.91
2023-04-19T12:35:40.958Z,36.16
2023-04-19T12:38:09.508Z,36.95
2023-04-19T12:40:37.132Z,36.90
2023-04-19T12:43:07.934Z,35.53
2023-04-19T12:45:35.755Z,35.23
2023-04-19T12:48:03.425Z,35.41
2023-04-19T12:50:31.299Z,35.53
2023-04-19T12:52:59.147Z,34.15
2023-04-19T12:55:26.852Z,34.09
2023-04-19T12:57:54.948Z,34.57
2023-04-19T13:00:24.553Z,35.15
2023-04-19T13:02:52.549Z,35.16
2023-04-19T13:05:20.947Z,35.50
2023-04-19T13:07:48.509Z,32.82
2023-04-19T13:10:16.122Z,33.37
2023-04-19T13:12:43.832Z,34.19
2023-04-19T13:15:12.174Z,34.09
2023-04-19T13:17:44.350Z,33.49
2023-04-19T13:20:13.908Z,33.71
2023-04-19T13:22:41.703Z,34.03
2023-04-19T13:25:10.423Z,32.96
2023-04-19T13:27:38.299Z,29.40
2023-04-19T13:30:06.917Z,28.53
2023-04-19T13:32:38.540Z,29.65
2023-04-19T13:35:13.972Z,27.71
2023-04-19T13:37:44.376Z,26.86
2023-04-19T13:40:19.173Z,29.23
2023-04-19T13:42:54.976Z,29.13
2023-04-19T13:45:22.815Z,29.75
2023-04-19T13:47:52.835Z,29.53
2023-04-19T13:50:22.090Z,29.55
2023-04-19T13:52:49.750Z,31.08
2023-04-19T13:55:17.484Z,30.52
2023-04-19T13:57:45.073Z,31.14
2023-04-19T14:00:14.508Z,31.90
2023-04-19T14:02:45.918Z,31.80
2023-04-19T14:05:15.541Z,32.57
2023-04-19T14:07:44.465Z,32.29
2023-04-19T14:10:12.591Z,32.14
2023-04-19T14:12:43.523Z,31.85
2023-04-19T14:15:12.790Z,31.76
2023-04-19T14:17:40.461Z,31.79
2023-04-19T14:20:09.907Z,30.83
2023-04-19T14:22:37.688Z,31.48
2023-04-19T14:25:07.670Z,32.06
2023-04-19T14:27:35.657Z,31.71
2023-04-19T14:30:03.503Z,31.74
2023-04-19T14:32:31.319Z,32.23
2023-04-19T14:35:00.698Z,32.49
2023-04-19T14:37:28.886Z,32.58
2023-04-19T14:39:56.496Z,32.44
2023-04-19T14:42:25.916Z,32.47
2023-04-19T14:44:53.841Z,32.04
2023-04-19T14:47:21.970Z,32.20
2023-04-19T14:49:49.732Z,32.74
2023-04-19T14:52:17.796Z,33.29
2023-04-19T14:54:45.474Z,33.67
2023-04-19T14:57:13.953Z,33.69
2023-04-19T14:59:43.188Z,33.93
2023-04-19T15:02:13.207Z,34.22
2023-04-19T15:04:41.888Z,33.44
2023-04-19T15:07:09.873Z,33.27
2023-04-19T15:09:38.805Z,34.00
2023-04-19T15:12:06.803Z,32.98
2023-04-19T15:14:34.568Z,33.59
2023-04-19T15:17:04.030Z,34.29
2023-04-19T15:19:33.582Z,34.04
2023-04-19T15:22:06.016Z,34.06
2023-04-19T15:24:38.563Z,33.84
2023-04-19T15:27:23.520Z,34.77
2023-04-19T15:29:51.822Z,34.74
2023-04-19T15:32:21.837Z,35.26
2023-04-19T15:34:50.724Z,35.00
2023-04-19T15:37:28.294Z,35.47
2023-04-19T15:40:01.172Z,34.58
2023-04-19T15:42:29.169Z,34.85
2023-04-19T15:44:56.920Z,34.87
2023-04-19T15:47:28.390Z,35.48
2023-04-19T15:49:56.039Z,35.49
2023-04-19T15:52:24.838Z,36.55
2023-04-19T15:54:52.485Z,36.60
2023-04-19T15:57:20.137Z,36.31
2023-04-19T15:59:49.183Z,36.75
2023-04-19T16:02:17.623Z,36.70
2023-04-19T16:04:49.730Z,36.74
2023-04-19T16:07:23.514Z,35.98
2023-04-19T16:09:51.118Z,36.20
2023-04-19T16:12:21.624Z,35.67
2023-04-19T16:15:00.825Z,36.08
2023-04-19T16:17:30.884Z,36.70
2023-04-19T16:20:00.225Z,36.69
2023-04-19T16:22:31.180Z,36.86
2023-04-19T16:24:59.531Z,36.77
2023-04-19T16:27:31.237Z,36.77
2023-04-19T16:30:01.817Z,36.36
2023-04-19T16:32:29.664Z,36.38
2023-04-19T16:34:58.197Z,36.50
2023-04-19T16:37:27.234Z,37.21
2023-04-19T16:39:55.129Z,36.76
2023-04-19T16:42:22.777Z,36.93
2023-04-19T16:44:51.651Z,37.08
2023-04-19T16:47:19.257Z,36.94
2023-04-19T16:49:50.439Z,36.74
2023-04-19T16:52:20.185Z,36.38
2023-04-19T16:54:49.528Z,37.08
2023-04-19T16:57:17.504Z,37.27
2023-04-19T16:59:46.148Z,37.14
2023-04-19T17:02:14.126Z,36.75
2023-04-19T17:04:43.180Z,37.21
2023-04-19T17:07:11.601Z,37.61
2023-04-19T17:09:40.517Z,37.97
2023-04-19T17:12:09.675Z,37.69
2023-04-19T17:14:37.406Z,37.44
2023-04-19T17:17:05.391Z,37.48
2023-04-19T17:19:33.341Z,37.49
2023-04-19T17:22:05.261Z,37.33
2023-04-19T17:24:35.634Z,37.30
2023-04-19T17:27:22.982Z,37.28
2023-04-19T17:29:50.981Z,37.51
2023-04-19T17:32:26.731Z,37.42
2023-04-19T17:34:54.614Z,37.77
2023-04-19T17:37:22.347Z,37.45
2023-04-19T17:39:50.195Z,37.92
2023-04-19T17:42:21.634Z,37.91
2023-04-19T17:44:49.538Z,37.96
2023-04-19T17:47:21.709Z,38.44
2023-04-19T17:49:51.301Z,38.65
2023-04-19T17:52:21.067Z,38.84
2023-04-19T17:54:49.324Z,39.01
2023-04-19T17:57:16.940Z,39.41
2023-04-19T17:59:46.637Z,38.98
2023-04-19T18:02:24.982Z,39.16
2023-04-19T18:04:57.398Z,39.41
2023-04-19T18:07:27.187Z,38.67
2023-04-19T18:09:54.896Z,38.76
2023-04-19T18:12:24.901Z,38.74
2023-04-19T18:14:54.969Z,38.92
2023-04-19T18:17:23.363Z,38.30
2023-04-19T18:19:51.589Z,38.67
2023-04-19T18:22:19.887Z,38.95
2023-04-19T18:24:55.979Z,39.11
2023-04-19T18:27:23.807Z,39.28
2023-04-19T18:29:52.574Z,39.21
2023-04-19T18:32:26.881Z,39.44
2023-04-19T18:35:00.161Z,40.06
2023-04-19T18:37:27.922Z,40.06
2023-04-19T18:39:55.840Z,40.73
2023-04-19T18:42:24.524Z,40.14
2023-04-19T18:44:54.655Z,40.44
2023-04-19T18:47:26.348Z,40.48
2023-04-19T18:52:25.359Z,40.19
2023-04-19T18:54:56.140Z,40.14
2023-04-19T18:57:27.363Z,40.73
2023-04-19T18:59:56.737Z,41.29
2023-04-19T19:02:29.889Z,41.35
2023-04-19T19:05:01.684Z,41.26
2023-04-19T19:10:02.478Z,41.53
2023-04-19T19:12:33.434Z,41.59
2023-04-19T19:15:01.339Z,41.45
2023-04-19T19:17:30.886Z,41.76
2023-04-19T19:19:58.514Z,41.83
2023-04-19T19:22:28.850Z,42.23
2023-04-19T19:24:57.291Z,42.45
2023-04-19T19:27:25.831Z,42.84
2023-04-19T19:29:53.598Z,42.54
2023-04-19T19:32:21.572Z,42.50
2023-04-19T19:34:56.624Z,43.14
2023-04-19T19:37:31.821Z,43.60
2023-04-19T19:40:04.045Z,43.33
2023-04-19T19:42:32.897Z,43.41
2023-04-19T19:45:00.555Z,43.86
2023-04-19T19:47:30.537Z,43.91
2023-04-19T19:52:32.842Z,43.81
2023-04-19T19:55:00.907Z,44.18
2023-04-19T20:00:18.024Z,44.36
2023-04-19T20:05:23.032Z,44.36
2023-04-19T20:08:01.800Z,44.31
2023-04-19T20:10:31.835Z,44.76
2023-04-19T20:13:01.586Z,44.35
2023-04-19T20:15:30.086Z,44.75
2023-04-19T20:18:03.441Z,44.72
2023-04-19T20:20:32.911Z,45.33
2023-04-19T20:23:00.741Z,45.49
2023-04-19T20:25:28.349Z,45.33
2023-04-19T20:27:56.505Z,45.95
2023-04-19T20:30:24.333Z,46.55
2023-04-19T20:32:52.806Z,45.91
2023-04-19T20:35:21.108Z,46.36
2023-04-19T20:37:50.831Z,46.99
2023-04-19T20:40:18.637Z,46.99
2023-04-19T20:42:46.684Z,46.94
2023-04-19T20:45:15.177Z,47.96
2023-04-19T20:47:45.208Z,47.41
2023-04-19T20:50:13.535Z,47.94
2023-04-19T20:52:41.714Z,47.75
2023-04-19T20:55:11.494Z,48.17
2023-04-19T20:57:39.206Z,47.80
2023-04-19T21:00:09.282Z,47.59
2023-04-19T21:02:37.675Z,48.22
2023-04-19T21:05:06.316Z,48.33
2023-04-19T21:07:36.233Z,48.47
2023-04-19T21:10:03.948Z,49.12
2023-04-19T21:12:32.863Z,48.45
2023-04-19T21:15:00.415Z,48.11
2023-04-19T21:17:28.268Z,48.14
2023-04-19T21:19:55.886Z,48.66
2023-04-19T21:22:23.554Z,48.52
2023-04-19T21:24:51.176Z,48.34
2023-04-19T21:27:18.883Z,48.52
2023-04-19T21:29:47.866Z,48.76
2023-04-19T21:32:15.453Z,48.28
2023-04-19T21:34:43.190Z,47.93
2023-04-19T21:37:10.781Z,47.81
2023-04-19T21:39:38.716Z,47.70
2023-04-19T21:42:06.393Z,48.24
2023-04-19T21:44:34.479Z,47.88
2023-04-19T21:47:03.550Z,48.41
2023-04-19T21:49:31.890Z,47.97
2023-04-19T21:51:59.590Z,48.24
2023-04-19T21:54:34.078Z,48.59
2023-04-19T21:57:02.488Z,49.42
2023-04-19T21:59:30.814Z,48.79
2023-04-19T22:01:59.488Z,49.22
2023-04-19T22:04:30.563Z,48.96
2023-04-19T22:06:58.442Z,50.37
2023-04-19T22:09:26.025Z,49.79
2023-04-19T22:11:53.619Z,49.44
2023-04-19T22:14:22.984Z,49.43
2023-04-19T22:16:51.015Z,49.68
2023-04-19T22:19:18.992Z,50.20
2023-04-19T22:21:48.364Z,50.87
2023-04-19T22:24:16.608Z,50.96
2023-04-19T22:26:45.350Z,50.82
2023-04-19T22:29:12.969Z,51.74
2023-04-19T22:31:41.174Z,51.31
2023-04-19T22:34:08.998Z,52.07
2023-04-19T22:36:36.587Z,51.99
2023-04-19T22:39:05.861Z,51.48
2023-04-19T22:41:33.995Z,52.16
2023-04-19T22:44:01.728Z,51.45
2023-04-19T22:46:32.844Z,51.62
2023-04-19T22:49:00.888Z,51.77
2023-04-19T22:51:29.257Z,52.56
2023-04-19T22:54:00.173Z,53.00
2023-04-19T22:56:30.926Z,53.50
2023-04-19T22:58:59.564Z,53.21
2023-04-19T23:01:27.174Z,53.51
2023-04-19T23:03:55.284Z,53.06
2023-04-19T23:06:23.422Z,52.43
2023-04-19T23:08:51.998Z,52.31
2023-04-19T23:11:24.718Z,52.12
2023-04-19T23:13:53.931Z,52.81
2023-04-19T23:16:22.532Z,53.04
2023-04-19T23:18:56.314Z,53.34
2023-04-19T23:21:23.955Z,53.97
2023-04-19T23:23:51.664Z,54.30
2023-04-19T23:26:19.345Z,53.98
2023-04-19T23:28:47.032Z,53.98
2023-04-19T23:31:16.282Z,53.61
2023-04-19T23:33:51.332Z,54.37
2023-04-19T23:36:19.048Z,53.91
2023-04-19T23:38:48.308Z,54.89
2023-04-19T23:41:17.007Z,54.73
2023-04-19T23:43:51.543Z,53.88
2023-04-19T23:46:20.848Z,54.12
2023-04-19T23:48:48.465Z,54.76
2023-04-19T23:51:16.204Z,54.93
2023-04-19T23:56:31.548Z,56.79
2023-04-19T23:58:59.203Z,56.99
